createdAt,value
2017-11-14T00:00:23.845Z,-1.06
2017-11-14T00:01:23.822Z,-1.11
2017-11-14T00:02:23.453Z,-1.06
2017-11-14T00:03:23.456Z,-1.11
2017-11-14T00:04:23.415Z,-1.13
2017-11-14T00:05:23.395Z,-1.03
2017-11-14T00:06:23.378Z,-1.14
2017-11-14T00:07:23.714Z,-1.09
2017-11-14T00:08:24.032Z,-1.1
2017-11-14T00:09:23.329Z,-1.13
2017-11-14T00:10:23.355Z,-1.24
2017-11-14T00:11:23.294Z,-1.22
2017-11-14T00:12:23.630Z,-1.27
2017-11-14T00:13:23.614Z,-1.21
2017-11-14T00:14:23.581Z,-1.24
2017-11-14T00:15:23.904Z,-1.09
2017-11-14T00:16:23.586Z,-1.09
2017-11-14T00:17:23.868Z,-1.22
2017-11-14T00:18:23.164Z,-1.22
2017-11-14T00:19:23.152Z,-1.24
2017-11-14T00:20:23.871Z,-1.09
2017-11-14T00:21:23.109Z,-1.25
2017-11-14T00:22:23.441Z,-1.19
2017-11-14T00:23:23.424Z,-1.24
2017-11-14T00:24:23.049Z,-1.21
2017-11-14T00:25:23.035Z,-1.22
2017-11-14T00:26:23.395Z,-1.1
2017-11-14T00:27:23.342Z,-1.1
2017-11-14T00:28:23.225Z,-1.07
2017-11-14T00:29:23.304Z,-1.07
2017-11-14T00:30:24.103Z,-1.04
2017-11-14T00:31:23.307Z,-0.96
2017-11-14T00:32:23.265Z,-0.91
2017-11-14T00:33:23.238Z,-0.8
2017-11-14T00:34:23.207Z,-0.79
2017-11-14T00:35:22.852Z,-0.74
2017-11-14T00:36:23.173Z,-0.7
2017-11-14T00:37:22.811Z,-0.62
2017-11-14T00:38:23.492Z,-0.73
2017-11-14T00:39:22.781Z,-0.59
2017-11-14T00:40:22.771Z,-0.41
2017-11-14T00:41:23.425Z,-0.41
2017-11-14T00:42:22.718Z,-0.38
2017-11-14T00:43:23.395Z,-0.36
2017-11-14T00:44:23.029Z,-0.27
2017-11-14T00:45:23.017Z,-0.3
2017-11-14T00:46:23.012Z,-0.34
2017-11-14T00:47:22.630Z,-0.27
2017-11-14T00:48:22.615Z,-0.3
2017-11-14T00:49:22.592Z,-0.34
2017-11-14T00:50:22.914Z,-0.33
2017-11-14T00:51:22.905Z,-0.36
2017-11-14T00:52:22.535Z,-0.31
2017-11-14T00:53:22.535Z,-0.41
2017-11-14T00:54:22.501Z,-0.37
2017-11-14T00:55:22.848Z,-0.4
2017-11-14T00:56:22.807Z,-0.51
2017-11-14T00:57:22.449Z,-0.48
2017-11-14T00:58:22.769Z,-0.49
2017-11-14T00:59:22.749Z,-0.56
2017-11-14T01:00:22.736Z,-0.55
2017-11-14T01:01:22.382Z,-0.59
2017-11-14T01:02:22.354Z,-0.66
2017-11-14T01:03:22.694Z,-0.64
2017-11-14T01:04:22.676Z,-0.66
2017-11-14T01:05:22.641Z,-0.69
2017-11-14T01:06:22.647Z,-0.66
2017-11-14T01:07:22.262Z,-0.69
2017-11-14T01:08:22.585Z,-0.8
2017-11-14T01:09:22.566Z,-0.82
2017-11-14T01:10:22.228Z,-0.82
2017-11-14T01:11:22.531Z,-0.96
2017-11-14T01:12:22.882Z,-0.89
2017-11-14T01:13:22.153Z,-0.92
2017-11-14T01:14:22.484Z,-0.92
2017-11-14T01:15:22.481Z,-0.98
2017-11-14T01:16:22.439Z,-0.95
2017-11-14T01:17:22.098Z,-0.96
2017-11-14T01:18:22.422Z,-1.06
2017-11-14T01:19:22.385Z,-1.04
2017-11-14T01:20:24.272Z,-1.07
2017-11-14T01:21:22.021Z,-1.03
2017-11-14T01:22:21.992Z,-1.14
2017-11-14T01:23:22.655Z,-1.16
2017-11-14T01:24:21.955Z,-1.1
2017-11-14T01:25:22.273Z,-1.06
2017-11-14T01:26:21.912Z,-1.1
2017-11-14T01:27:21.912Z,-1.06
2017-11-14T01:28:22.560Z,-1.01
2017-11-14T01:29:22.205Z,-1.06
2017-11-14T01:30:22.526Z,-1.06
2017-11-14T01:31:22.176Z,-1.07
2017-11-14T01:32:22.146Z,-0.95
2017-11-14T01:33:22.129Z,-1.01
2017-11-14T01:34:21.764Z,-0.98
2017-11-14T01:35:21.754Z,-1.01
2017-11-14T01:36:22.077Z,-1.04
2017-11-14T01:37:21.711Z,-1.09
2017-11-14T01:38:22.050Z,-1.14
2017-11-14T01:39:22.018Z,-1.13
2017-11-14T01:40:21.701Z,-1.11
2017-11-14T01:41:22.498Z,-1.11
2017-11-14T01:42:22.302Z,-1.21
2017-11-14T01:43:21.949Z,-1.19
2017-11-14T01:44:22.267Z,-1.13
2017-11-14T01:45:21.565Z,-1.27
2017-11-14T01:46:21.542Z,-1.22
2017-11-14T01:47:21.547Z,-1.22
2017-11-14T01:48:21.506Z,-1.22
2017-11-14T01:49:21.488Z,-1.21
2017-11-14T01:50:21.469Z,-1.25
2017-11-14T01:51:22.139Z,-1.27
2017-11-14T01:52:21.432Z,-1.22
2017-11-14T01:53:21.760Z,-1.3
2017-11-14T01:54:21.745Z,-1.3
2017-11-14T01:55:21.741Z,-1.27
2017-11-14T01:56:21.699Z,-1.28
2017-11-14T01:57:21.684Z,-1.28
2017-11-14T01:58:22.024Z,-1.22
2017-11-14T01:59:21.662Z,-1.3
2017-11-14T02:00:21.623Z,-1.31
2017-11-14T02:01:21.607Z,-1.32
2017-11-14T02:02:21.601Z,-1.28
2017-11-14T02:03:21.571Z,-1.31
2017-11-14T02:04:21.562Z,-1.31
2017-11-14T02:05:21.549Z,-1.35
2017-11-14T02:06:21.552Z,-1.34
2017-11-14T02:07:21.499Z,-1.45
2017-11-14T02:08:21.482Z,-1.38
2017-11-14T02:09:21.115Z,-1.4
2017-11-14T02:10:21.789Z,-1.32
2017-11-14T02:11:21.421Z,-1.34
2017-11-14T02:12:21.401Z,-1.32
2017-11-14T02:13:21.387Z,-1.22
2017-11-14T02:14:21.021Z,-1.22
2017-11-14T02:15:21.007Z,-1.24
2017-11-14T02:16:21.338Z,-1.11
2017-11-14T02:17:20.987Z,-1.06
2017-11-14T02:18:21.649Z,-1.07
2017-11-14T02:19:21.281Z,-0.99
2017-11-14T02:20:20.916Z,-0.96
2017-11-14T02:21:21.243Z,-0.89
2017-11-14T02:22:21.229Z,-0.84
2017-11-14T02:23:20.856Z,-0.92
2017-11-14T02:24:21.186Z,-0.77
2017-11-14T02:25:21.187Z,-0.73
2017-11-14T02:26:20.819Z,-0.67
2017-11-14T02:27:20.781Z,-0.64
2017-11-14T02:28:21.107Z,-0.62
2017-11-14T02:29:21.093Z,-0.48
2017-11-14T02:30:21.074Z,-0.45
2017-11-14T02:31:21.051Z,-0.36
2017-11-14T02:32:21.382Z,-0.31
2017-11-14T02:33:21.039Z,-0.28
2017-11-14T02:34:20.657Z,-0.12
2017-11-14T02:35:21.324Z,-0.1
2017-11-14T02:36:20.618Z,-0.1
2017-11-14T02:37:20.610Z,-0.04
2017-11-14T02:38:27.985Z,0.06
2017-11-14T02:39:21.251Z,0.09
2017-11-14T02:40:20.542Z,0.19
2017-11-14T02:41:20.877Z,0.05
2017-11-14T02:42:20.872Z,0.16
2017-11-14T02:43:20.498Z,0.2
2017-11-14T02:44:20.469Z,0.26
2017-11-14T02:45:20.798Z,0.21
2017-11-14T02:46:20.456Z,0.28
2017-11-14T02:47:20.770Z,0.44
2017-11-14T02:48:20.400Z,0.38
2017-11-14T02:49:20.727Z,0.39
2017-11-14T02:50:20.757Z,0.44
2017-11-14T02:51:20.347Z,0.53
2017-11-14T02:52:20.345Z,0.56
2017-11-14T02:53:20.326Z,0.64
2017-11-14T02:54:20.630Z,0.63
2017-11-14T02:55:20.273Z,0.69
2017-11-14T02:56:20.634Z,0.66
2017-11-14T02:57:20.604Z,0.67
2017-11-14T02:58:20.228Z,0.72
2017-11-14T02:59:20.893Z,0.66
2017-11-14T03:00:20.182Z,0.82
2017-11-14T03:01:20.171Z,0.82
2017-11-14T03:02:20.857Z,0.81
2017-11-14T03:03:20.151Z,0.85
2017-11-14T03:04:20.112Z,0.85
2017-11-14T03:05:20.093Z,0.86
2017-11-14T03:06:20.429Z,0.84
2017-11-14T03:07:20.411Z,0.92
2017-11-14T03:08:20.385Z,0.97
2017-11-14T03:09:20.030Z,1.03
2017-11-14T03:10:20.728Z,1
2017-11-14T03:11:20.338Z,1.11
2017-11-14T03:12:20.360Z,1.07
2017-11-14T03:13:19.955Z,1
2017-11-14T03:14:20.283Z,1.08
2017-11-14T03:15:20.264Z,1.14
2017-11-14T03:16:20.251Z,1.07
2017-11-14T03:17:19.887Z,1.07
2017-11-14T03:18:20.562Z,1.11
2017-11-14T03:19:20.194Z,1.08
2017-11-14T03:20:19.829Z,1.08
2017-11-14T03:21:19.826Z,1.18
2017-11-14T03:22:20.489Z,1.15
2017-11-14T03:23:19.780Z,1.21
2017-11-14T03:24:20.459Z,1.12
2017-11-14T03:25:19.748Z,1.21
2017-11-14T03:26:20.069Z,1.17
2017-11-14T03:27:20.057Z,1.15
2017-11-14T03:28:19.694Z,1.18
2017-11-14T03:29:20.400Z,1.21
2017-11-14T03:30:20.011Z,1.21
2017-11-14T03:31:19.663Z,1.21
2017-11-14T03:32:20.031Z,1.18
2017-11-14T03:33:19.979Z,1.21
2017-11-14T03:34:19.934Z,1.24
2017-11-14T03:35:19.914Z,1.21
2017-11-14T03:36:19.552Z,1.29
2017-11-14T03:37:19.884Z,1.3
2017-11-14T03:38:20.223Z,1.24
2017-11-14T03:39:19.505Z,1.33
2017-11-14T03:40:19.488Z,1.3
2017-11-14T03:41:19.852Z,1.29
2017-11-14T03:42:19.464Z,1.35
2017-11-14T03:43:19.436Z,1.32
2017-11-14T03:44:20.118Z,1.33
2017-11-14T03:45:19.760Z,1.29
2017-11-14T03:46:19.727Z,1.28
2017-11-14T03:47:20.058Z,1.42
2017-11-14T03:48:19.350Z,1.36
2017-11-14T03:49:19.335Z,1.36
2017-11-14T03:50:19.317Z,1.39
2017-11-14T03:51:19.985Z,1.4
2017-11-14T03:52:19.637Z,1.42
2017-11-14T03:53:19.612Z,1.42
2017-11-14T03:54:19.245Z,1.38
2017-11-14T03:55:19.349Z,1.39
2017-11-14T03:56:19.554Z,1.35
2017-11-14T03:57:19.541Z,1.39
2017-11-14T03:58:19.867Z,1.44
2017-11-14T03:59:19.160Z,1.35
2017-11-14T04:00:19.488Z,1.36
2017-11-14T04:01:19.469Z,1.46
2017-11-14T04:02:19.112Z,1.33
2017-11-14T04:03:19.094Z,1.39
2017-11-14T04:04:19.418Z,1.4
2017-11-14T04:05:19.399Z,1.39
2017-11-14T04:06:19.392Z,1.44
2017-11-14T04:07:19.708Z,1.36
2017-11-14T04:08:19.372Z,1.4
2017-11-14T04:09:19.000Z,1.39
2017-11-14T04:10:18.975Z,1.36
2017-11-14T04:11:19.298Z,1.4
2017-11-14T04:12:19.638Z,1.39
2017-11-14T04:13:19.269Z,1.47
2017-11-14T04:14:19.246Z,1.36
2017-11-14T04:15:18.889Z,1.39
2017-11-14T04:16:18.873Z,1.44
2017-11-14T04:17:19.196Z,1.4
2017-11-14T04:18:19.188Z,1.47
2017-11-14T04:19:19.176Z,1.35
2017-11-14T04:20:19.522Z,1.42
2017-11-14T04:21:19.145Z,1.36
2017-11-14T04:22:18.782Z,1.42
2017-11-14T04:23:18.754Z,1.46
2017-11-14T04:24:18.736Z,1.4
2017-11-14T04:25:19.061Z,1.47
2017-11-14T04:26:18.702Z,1.53
2017-11-14T04:27:18.701Z,1.44
2017-11-14T04:28:19.031Z,1.44
2017-11-14T04:29:19.333Z,1.4
2017-11-14T04:30:18.998Z,1.46
2017-11-14T04:31:18.966Z,1.44
2017-11-14T04:32:18.620Z,1.42
2017-11-14T04:33:18.927Z,1.44
2017-11-14T04:34:18.924Z,1.39
2017-11-14T04:35:18.554Z,1.48
2017-11-14T04:36:18.532Z,1.5
2017-11-14T04:37:18.863Z,1.44
2017-11-14T04:38:18.844Z,1.48
2017-11-14T04:39:18.825Z,1.5
2017-11-14T04:40:18.813Z,1.48
2017-11-14T04:41:18.794Z,1.48
2017-11-14T04:42:18.795Z,1.51
2017-11-14T04:43:18.779Z,1.48
2017-11-14T04:44:18.739Z,1.53
2017-11-14T04:45:18.379Z,1.39
2017-11-14T04:46:18.363Z,1.51
2017-11-14T04:47:18.689Z,1.47
2017-11-14T04:48:19.023Z,1.54
2017-11-14T04:49:18.331Z,1.44
2017-11-14T04:50:18.645Z,1.51
2017-11-14T04:51:18.279Z,1.48
2017-11-14T04:52:18.605Z,1.47
2017-11-14T04:53:18.244Z,1.51
2017-11-14T04:54:18.249Z,1.51
2017-11-14T04:55:18.906Z,1.5
2017-11-14T04:56:18.546Z,1.38
2017-11-14T04:57:18.182Z,1.5
2017-11-14T04:58:18.514Z,1.53
2017-11-14T04:59:18.486Z,1.48
2017-11-14T05:00:18.126Z,1.5
2017-11-14T05:01:18.113Z,1.57
2017-11-14T05:02:18.784Z,1.48
2017-11-14T05:03:18.418Z,1.42
2017-11-14T05:04:18.060Z,1.54
2017-11-14T05:05:18.047Z,1.42
2017-11-14T05:06:18.393Z,1.44
2017-11-14T05:07:18.355Z,1.47
2017-11-14T05:08:18.343Z,1.42
2017-11-14T05:09:18.320Z,1.46
2017-11-14T05:10:18.300Z,1.4
2017-11-14T05:11:18.625Z,1.4
2017-11-14T05:12:18.617Z,1.39
2017-11-14T05:13:18.625Z,1.57
2017-11-14T05:14:18.582Z,1.47
2017-11-14T05:15:17.876Z,1.42
2017-11-14T05:16:18.201Z,1.42
2017-11-14T05:17:18.196Z,1.48
2017-11-14T05:18:17.825Z,1.38
2017-11-14T05:19:17.808Z,1.53
2017-11-14T05:20:17.810Z,1.44
2017-11-14T05:21:17.773Z,1.44
2017-11-14T05:22:17.754Z,1.47
2017-11-14T05:23:17.753Z,1.44
2017-11-14T05:24:17.727Z,1.44
2017-11-14T05:25:18.044Z,1.46
2017-11-14T05:26:18.380Z,1.47
2017-11-14T05:27:18.374Z,1.47
2017-11-14T05:28:18.003Z,1.53
2017-11-14T05:29:17.979Z,1.54
2017-11-14T05:30:17.618Z,1.42
2017-11-14T05:31:17.601Z,1.47
2017-11-14T05:32:17.930Z,1.46
2017-11-14T05:33:18.291Z,1.4
2017-11-14T05:34:17.895Z,1.53
2017-11-14T05:35:17.875Z,1.42
2017-11-14T05:36:17.517Z,1.44
2017-11-14T05:37:18.184Z,1.54
2017-11-14T05:38:18.171Z,1.5
2017-11-14T05:39:17.820Z,1.57
2017-11-14T05:40:17.450Z,1.44
2017-11-14T05:41:17.778Z,1.48
2017-11-14T05:42:17.770Z,1.5
2017-11-14T05:43:17.742Z,1.61
2017-11-14T05:44:17.382Z,1.46
2017-11-14T05:45:17.365Z,1.46
2017-11-14T05:46:17.359Z,1.53
2017-11-14T05:47:17.684Z,1.56
2017-11-14T05:48:18.013Z,1.53
2017-11-14T05:49:17.641Z,1.51
2017-11-14T05:50:17.626Z,1.54
2017-11-14T05:51:17.948Z,1.46
2017-11-14T05:52:17.596Z,1.5
2017-11-14T05:53:17.245Z,1.5
2017-11-14T05:54:17.558Z,1.53
2017-11-14T05:55:17.217Z,1.57
2017-11-14T05:56:17.180Z,1.5
2017-11-14T05:57:17.867Z,1.47
2017-11-14T05:58:17.490Z,1.44
2017-11-14T05:59:17.469Z,1.44
2017-11-14T06:00:17.460Z,1.48
2017-11-14T06:01:17.803Z,1.5
2017-11-14T06:02:17.080Z,1.42
2017-11-14T06:03:17.419Z,1.42
2017-11-14T06:04:17.043Z,1.53
2017-11-14T06:05:17.382Z,1.57
2017-11-14T06:06:17.009Z,1.51
2017-11-14T06:07:17.684Z,1.47
2017-11-14T06:08:16.978Z,1.54
2017-11-14T06:09:16.979Z,1.46
2017-11-14T06:10:17.284Z,1.54
2017-11-14T06:11:17.278Z,1.48
2017-11-14T06:12:17.256Z,1.57
2017-11-14T06:13:17.582Z,1.48
2017-11-14T06:14:16.875Z,1.56
2017-11-14T06:15:17.206Z,1.56
2017-11-14T06:16:17.227Z,1.42
2017-11-14T06:17:17.165Z,1.46
2017-11-14T06:18:17.520Z,1.51
2017-11-14T06:19:17.137Z,1.44
2017-11-14T06:20:16.796Z,1.54
2017-11-14T06:21:17.105Z,1.51
2017-11-14T06:22:17.423Z,1.48
2017-11-14T06:23:17.092Z,1.51
2017-11-14T06:24:17.048Z,1.46
2017-11-14T06:25:16.694Z,1.4
2017-11-14T06:26:16.670Z,1.42
2017-11-14T06:27:16.661Z,1.42
2017-11-14T06:28:16.636Z,1.39
2017-11-14T06:29:16.963Z,1.32
2017-11-14T06:30:16.957Z,1.35
2017-11-14T06:31:16.929Z,1.35
2017-11-14T06:32:16.914Z,1.24
2017-11-14T06:33:16.553Z,1.3
2017-11-14T06:34:16.878Z,1.28
2017-11-14T06:35:16.860Z,1.33
2017-11-14T06:36:16.500Z,1.28
2017-11-14T06:37:17.405Z,1.32
2017-11-14T06:38:16.810Z,1.28
2017-11-14T06:39:16.452Z,1.32
2017-11-14T06:40:16.776Z,1.33
2017-11-14T06:41:16.789Z,1.32
2017-11-14T06:42:17.087Z,1.32
2017-11-14T06:43:16.390Z,1.36
2017-11-14T06:44:16.706Z,1.28
2017-11-14T06:45:16.350Z,1.33
2017-11-14T06:46:16.684Z,1.18
2017-11-14T06:47:17.000Z,1.32
2017-11-14T06:48:16.640Z,1.18
2017-11-14T06:49:16.297Z,1.33
2017-11-14T06:50:16.275Z,1.32
2017-11-14T06:51:16.245Z,1.28
2017-11-14T06:52:16.578Z,1.33
2017-11-14T06:53:16.899Z,1.28
2017-11-14T06:54:16.194Z,1.2
2017-11-14T06:55:16.183Z,1.32
2017-11-14T06:56:16.506Z,1.2
2017-11-14T06:57:16.145Z,1.29
2017-11-14T06:58:16.475Z,1.33
2017-11-14T06:59:16.111Z,1.3
2017-11-14T07:00:16.119Z,1.38
2017-11-14T07:01:16.422Z,1.32
2017-11-14T07:02:16.056Z,1.29
2017-11-14T07:03:16.386Z,1.28
2017-11-14T07:04:16.025Z,1.29
2017-11-14T07:05:16.688Z,1.29
2017-11-14T07:06:16.357Z,1.22
2017-11-14T07:07:16.327Z,1.29
2017-11-14T07:08:16.646Z,1.22
2017-11-14T07:09:16.652Z,1.12
2017-11-14T07:10:15.919Z,1.07
2017-11-14T07:11:15.908Z,1.12
2017-11-14T07:12:16.594Z,1.04
2017-11-14T07:13:15.869Z,1.08
2017-11-14T07:14:16.214Z,1.07
2017-11-14T07:15:16.175Z,0.99
2017-11-14T07:16:16.180Z,0.99
2017-11-14T07:17:16.149Z,0.96
2017-11-14T07:18:16.135Z,0.99
2017-11-14T07:19:16.113Z,0.94
2017-11-14T07:20:16.111Z,0.96
2017-11-14T07:21:16.418Z,0.92
2017-11-14T07:22:16.061Z,0.93
2017-11-14T07:23:15.701Z,0.94
2017-11-14T07:24:16.394Z,0.84
2017-11-14T07:25:16.004Z,0.92
2017-11-14T07:26:15.996Z,0.85
2017-11-14T07:27:16.012Z,0.82
2017-11-14T07:28:15.610Z,0.94
2017-11-14T07:29:15.936Z,0.78
2017-11-14T07:30:15.927Z,0.86
2017-11-14T07:31:16.264Z,0.78
2017-11-14T07:32:15.886Z,0.81
2017-11-14T07:33:16.233Z,0.81
2017-11-14T07:34:15.509Z,0.82
2017-11-14T07:35:15.846Z,0.78
2017-11-14T07:36:15.818Z,0.82
2017-11-14T07:37:16.164Z,0.86
2017-11-14T07:38:15.459Z,0.78
2017-11-14T07:39:16.117Z,0.84
2017-11-14T07:40:15.756Z,0.79
2017-11-14T07:41:16.080Z,0.81
2017-11-14T07:42:15.368Z,0.84
2017-11-14T07:43:15.701Z,0.81
2017-11-14T07:44:15.697Z,0.76
2017-11-14T07:45:15.659Z,0.86
2017-11-14T07:46:15.299Z,0.93
2017-11-14T07:47:15.282Z,0.92
2017-11-14T07:48:15.618Z,0.97
2017-11-14T07:49:15.601Z,1.02
2017-11-14T07:50:15.230Z,1.14
2017-11-14T07:51:15.236Z,1.28
2017-11-14T07:52:15.194Z,1.36
2017-11-14T07:53:15.518Z,1.4
2017-11-14T07:54:15.161Z,1.58
2017-11-14T07:55:15.487Z,1.75
2017-11-14T07:56:15.467Z,1.89
2017-11-14T07:57:15.812Z,1.79
2017-11-14T07:58:15.780Z,1.92
2017-11-14T07:59:15.420Z,2.06
2017-11-14T08:00:15.057Z,2.11
2017-11-14T08:01:15.743Z,2.06
2017-11-14T08:02:15.368Z,2.18
2017-11-14T08:03:15.349Z,2.13
2017-11-14T08:04:15.337Z,2.15
2017-11-14T08:05:15.314Z,2.15
2017-11-14T08:06:15.318Z,2.16
2017-11-14T08:07:15.289Z,2.09
2017-11-14T08:08:14.923Z,2.11
2017-11-14T08:09:15.246Z,2.15
2017-11-14T08:10:14.890Z,2.11
2017-11-14T08:11:14.887Z,2.06
2017-11-14T08:12:15.233Z,2.12
2017-11-14T08:13:15.561Z,2.06
2017-11-14T08:14:15.189Z,2.15
2017-11-14T08:15:15.177Z,2.15
2017-11-14T08:16:15.136Z,2.11
2017-11-14T08:17:15.190Z,2.18
2017-11-14T08:18:15.107Z,2.11
2017-11-14T08:19:15.088Z,2.15
2017-11-14T08:20:14.733Z,2.08
2017-11-14T08:21:14.707Z,2.12
2017-11-14T08:22:15.052Z,2.09
2017-11-14T08:23:15.016Z,2.04
2017-11-14T08:24:14.997Z,2.11
2017-11-14T08:25:14.985Z,2.16
2017-11-14T08:26:14.625Z,2.2
2017-11-14T08:27:14.671Z,2.2
2017-11-14T08:28:15.289Z,2.2
2017-11-14T08:29:14.572Z,2.15
2017-11-14T08:30:14.902Z,2.27
2017-11-14T08:31:15.223Z,2.31
2017-11-14T08:32:14.864Z,2.34
2017-11-14T08:33:14.511Z,2.33
2017-11-14T08:34:14.492Z,2.41
2017-11-14T08:35:14.831Z,2.36
2017-11-14T08:36:14.808Z,2.33
2017-11-14T08:37:14.804Z,2.44
2017-11-14T08:38:14.773Z,2.44
2017-11-14T08:39:14.757Z,2.45
2017-11-14T08:40:14.751Z,2.41
2017-11-14T08:41:15.093Z,2.41
2017-11-14T08:42:14.703Z,2.47
2017-11-14T08:43:14.345Z,2.55
2017-11-14T08:44:14.670Z,2.55
2017-11-14T08:45:15.008Z,2.58
2017-11-14T08:46:14.642Z,2.54
2017-11-14T08:47:14.643Z,2.63
2017-11-14T08:48:14.967Z,2.67
2017-11-14T08:49:14.250Z,2.72
2017-11-14T08:50:14.574Z,2.72
2017-11-14T08:51:14.213Z,2.84
2017-11-14T08:52:14.540Z,2.87
2017-11-14T08:53:14.184Z,2.95
2017-11-14T08:54:14.164Z,2.87
2017-11-14T08:55:14.845Z,2.85
2017-11-14T08:56:14.855Z,2.88
2017-11-14T08:57:14.460Z,2.9
2017-11-14T08:58:14.449Z,2.84
2017-11-14T08:59:14.466Z,2.88
2017-11-14T09:00:14.762Z,2.93
2017-11-14T09:01:14.393Z,2.93
2017-11-14T09:02:14.724Z,2.93
2017-11-14T09:03:14.019Z,2.95
2017-11-14T09:04:14.352Z,2.96
2017-11-14T09:05:13.985Z,2.9
2017-11-14T09:06:13.973Z,2.95
2017-11-14T09:07:14.298Z,2.95
2017-11-14T09:08:14.299Z,2.9
2017-11-14T09:09:14.274Z,2.93
2017-11-14T09:10:13.907Z,2.93
2017-11-14T09:11:14.591Z,3.02
2017-11-14T09:12:14.568Z,3.05
2017-11-14T09:13:13.860Z,3.03
2017-11-14T09:14:14.194Z,3.05
2017-11-14T09:15:14.173Z,3.17
2017-11-14T09:16:14.159Z,3.16
2017-11-14T09:17:14.484Z,3.16
2017-11-14T09:18:13.778Z,3.19
2017-11-14T09:19:14.108Z,3.19
2017-11-14T09:20:14.092Z,3.21
2017-11-14T09:21:14.430Z,3.21
2017-11-14T09:22:13.747Z,3.2
2017-11-14T09:23:13.702Z,3.13
2017-11-14T09:24:13.684Z,3.19
2017-11-14T09:25:13.695Z,3.19
2017-11-14T09:26:14.005Z,3.14
2017-11-14T09:27:13.982Z,3.17
2017-11-14T09:28:13.624Z,3.16
2017-11-14T09:29:13.607Z,3.2
2017-11-14T09:30:13.937Z,3.26
2017-11-14T09:31:14.263Z,3.35
2017-11-14T09:32:13.909Z,3.39
2017-11-14T09:33:13.885Z,3.39
2017-11-14T09:34:13.528Z,3.48
2017-11-14T09:35:13.879Z,3.48
2017-11-14T09:36:13.523Z,3.56
2017-11-14T09:37:13.828Z,3.6
2017-11-14T09:38:14.174Z,3.67
2017-11-14T09:39:13.796Z,3.69
2017-11-14T09:40:13.437Z,3.71
2017-11-14T09:41:13.781Z,3.69
2017-11-14T09:42:13.404Z,3.76
2017-11-14T09:43:13.392Z,3.82
2017-11-14T09:44:13.720Z,3.84
2017-11-14T09:45:13.702Z,3.9
2017-11-14T09:46:13.345Z,3.93
2017-11-14T09:47:13.677Z,3.89
2017-11-14T09:48:13.657Z,3.89
2017-11-14T09:49:13.299Z,3.96
2017-11-14T09:50:13.283Z,3.89
2017-11-14T09:51:13.953Z,3.89
2017-11-14T09:52:13.628Z,3.92
2017-11-14T09:53:13.936Z,4
2017-11-14T09:54:13.223Z,3.82
2017-11-14T09:55:13.913Z,3.93
2017-11-14T09:56:13.546Z,3.92
2017-11-14T09:57:13.176Z,4.02
2017-11-14T09:58:13.168Z,3.94
2017-11-14T09:59:13.487Z,3.86
2017-11-14T10:00:13.141Z,3.85
2017-11-14T10:01:13.466Z,3.92
2017-11-14T10:02:13.791Z,3.86
2017-11-14T10:03:13.089Z,3.82
2017-11-14T10:04:13.072Z,3.81
2017-11-14T10:05:13.420Z,3.76
2017-11-14T10:06:13.393Z,3.72
2017-11-14T10:07:13.027Z,3.82
2017-11-14T10:08:13.706Z,3.79
2017-11-14T10:09:13.346Z,3.82
2017-11-14T10:10:13.000Z,3.85
2017-11-14T10:11:13.308Z,3.76
2017-11-14T10:12:13.317Z,3.64
2017-11-14T10:13:13.641Z,3.72
2017-11-14T10:14:12.922Z,3.67
2017-11-14T10:15:13.275Z,3.54
2017-11-14T10:16:13.578Z,3.51
2017-11-14T10:17:13.285Z,3.57
2017-11-14T10:18:12.876Z,3.75
2017-11-14T10:19:13.188Z,3.67
2017-11-14T10:20:12.833Z,3.74
2017-11-14T10:21:13.517Z,3.75
2017-11-14T10:22:13.505Z,3.74
2017-11-14T10:23:12.784Z,3.82
2017-11-14T10:24:12.768Z,3.82
2017-11-14T10:25:13.130Z,3.97
2017-11-14T10:26:13.084Z,4.11
2017-11-14T10:27:13.069Z,4.07
2017-11-14T10:28:13.433Z,4.07
2017-11-14T10:29:13.063Z,4.15
2017-11-14T10:30:13.024Z,4.17
2017-11-14T10:31:12.665Z,4.2
2017-11-14T10:32:12.655Z,4.32
2017-11-14T10:33:12.634Z,4.32
2017-11-14T10:34:13.308Z,4.26
2017-11-14T10:35:12.666Z,4.26
2017-11-14T10:36:12.950Z,4.22
2017-11-14T10:37:13.277Z,4.36
2017-11-14T10:38:12.927Z,4.2
2017-11-14T10:39:12.889Z,4.3
2017-11-14T10:40:13.222Z,4.17
2017-11-14T10:41:12.858Z,4.22
2017-11-14T10:42:12.849Z,4.15
2017-11-14T10:43:13.181Z,4.26
2017-11-14T10:44:12.814Z,4.24
2017-11-14T10:45:12.457Z,4.3
2017-11-14T10:46:12.462Z,4.3
2017-11-14T10:47:13.111Z,4.36
2017-11-14T10:48:12.764Z,4.32
2017-11-14T10:49:12.744Z,4.39
2017-11-14T10:50:12.726Z,4.44
2017-11-14T10:51:12.367Z,4.47
2017-11-14T10:52:12.362Z,4.46
2017-11-14T10:53:12.339Z,4.51
2017-11-14T10:54:12.325Z,4.54
2017-11-14T10:55:12.655Z,4.51
2017-11-14T10:56:12.639Z,4.42
2017-11-14T10:57:12.964Z,4.51
2017-11-14T10:58:12.620Z,4.5
2017-11-14T10:59:12.617Z,4.5
2017-11-14T11:00:12.930Z,4.51
2017-11-14T11:01:12.224Z,4.54
2017-11-14T11:02:12.208Z,4.5
2017-11-14T11:03:12.895Z,4.46
2017-11-14T11:04:12.179Z,4.47
2017-11-14T11:05:12.507Z,4.53
2017-11-14T11:06:12.491Z,4.39
2017-11-14T11:07:12.484Z,4.32
2017-11-14T11:08:12.121Z,4.28
2017-11-14T11:09:12.795Z,4.2
2017-11-14T11:10:12.098Z,4.18
2017-11-14T11:11:12.780Z,4.14
2017-11-14T11:12:12.407Z,4.2
2017-11-14T11:13:12.763Z,4.21
2017-11-14T11:14:12.377Z,4.3
2017-11-14T11:15:12.021Z,4.35
2017-11-14T11:16:12.347Z,4.35
2017-11-14T11:17:12.336Z,4.28
2017-11-14T11:18:12.334Z,4.22
2017-11-14T11:19:12.300Z,4.29
2017-11-14T11:20:11.948Z,4.28
2017-11-14T11:21:11.958Z,4.33
2017-11-14T11:22:12.262Z,4.33
2017-11-14T11:23:12.596Z,4.29
2017-11-14T11:24:12.229Z,4.4
2017-11-14T11:25:11.872Z,4.47
2017-11-14T11:26:11.859Z,4.48
2017-11-14T11:27:11.844Z,4.54
2017-11-14T11:28:11.830Z,4.56
2017-11-14T11:29:12.169Z,4.54
2017-11-14T11:30:12.490Z,4.51
2017-11-14T11:31:12.134Z,4.57
2017-11-14T11:32:11.778Z,4.64
2017-11-14T11:33:12.109Z,4.64
2017-11-14T11:34:12.085Z,4.71
2017-11-14T11:35:12.081Z,4.68
2017-11-14T11:36:12.086Z,4.66
2017-11-14T11:37:11.695Z,4.66
2017-11-14T11:38:12.036Z,4.69
2017-11-14T11:39:12.014Z,4.71
2017-11-14T11:40:12.001Z,4.66
2017-11-14T11:41:12.001Z,4.71
2017-11-14T11:42:11.966Z,4.69
2017-11-14T11:43:11.969Z,4.71
2017-11-14T11:44:11.596Z,4.71
2017-11-14T11:45:12.266Z,4.69
2017-11-14T11:46:11.566Z,4.68
2017-11-14T11:47:12.252Z,4.68
2017-11-14T11:48:11.541Z,4.68
2017-11-14T11:49:11.881Z,4.65
2017-11-14T11:50:11.512Z,4.68
2017-11-14T11:51:11.843Z,4.66
2017-11-14T11:52:12.194Z,4.65
2017-11-14T11:53:11.466Z,4.6
2017-11-14T11:54:11.816Z,4.53
2017-11-14T11:55:11.437Z,4.53
2017-11-14T11:56:11.778Z,4.46
2017-11-14T11:57:11.751Z,4.35
2017-11-14T11:58:11.742Z,4.3
2017-11-14T11:59:12.066Z,4.28
2017-11-14T12:00:12.074Z,4.22
2017-11-14T12:01:11.703Z,4.18
2017-11-14T12:02:11.336Z,4.14
2017-11-14T12:03:11.674Z,4.07
2017-11-14T12:04:11.648Z,4.11
2017-11-14T12:05:11.647Z,4.08
2017-11-14T12:06:11.627Z,4.18
2017-11-14T12:07:11.265Z,4.12
2017-11-14T12:08:11.264Z,4.17
2017-11-14T12:09:11.943Z,4.08
2017-11-14T12:10:11.902Z,4.07
2017-11-14T12:11:11.893Z,3.99
2017-11-14T12:12:11.532Z,4.03
2017-11-14T12:13:11.561Z,3.97
2017-11-14T12:14:11.510Z,3.96
2017-11-14T12:15:11.143Z,3.9
2017-11-14T12:16:11.129Z,3.82
2017-11-14T12:17:11.478Z,3.82
2017-11-14T12:18:11.442Z,3.82
2017-11-14T12:19:11.085Z,3.78
2017-11-14T12:20:11.427Z,3.85
2017-11-14T12:21:11.747Z,3.79
2017-11-14T12:22:11.382Z,3.79
2017-11-14T12:23:11.026Z,3.86
2017-11-14T12:24:11.357Z,3.79
2017-11-14T12:25:11.682Z,3.81
2017-11-14T12:26:11.361Z,3.85
2017-11-14T12:27:11.661Z,3.93
2017-11-14T12:28:11.730Z,4
2017-11-14T12:29:10.933Z,4.11
2017-11-14T12:30:10.923Z,4.15
2017-11-14T12:31:10.909Z,4.3
2017-11-14T12:32:11.252Z,4.2
2017-11-14T12:33:11.235Z,4.28
2017-11-14T12:34:11.206Z,4.3
2017-11-14T12:35:10.844Z,4.35
2017-11-14T12:36:11.534Z,4.36
2017-11-14T12:37:11.159Z,4.39
2017-11-14T12:38:10.803Z,4.3
2017-11-14T12:39:10.786Z,4.33
2017-11-14T12:40:10.773Z,4.32
2017-11-14T12:41:11.099Z,4.28
2017-11-14T12:42:11.084Z,4.3
2017-11-14T12:43:11.074Z,4.38
2017-11-14T12:44:11.057Z,4.39
2017-11-14T12:45:10.698Z,4.48
2017-11-14T12:46:11.025Z,4.53
2017-11-14T12:47:10.671Z,4.51
2017-11-14T12:48:10.997Z,4.54
2017-11-14T12:49:10.998Z,4.51
2017-11-14T12:50:11.338Z,4.46
2017-11-14T12:51:10.972Z,4.4
2017-11-14T12:52:10.934Z,4.33
2017-11-14T12:53:10.582Z,4.35
2017-11-14T12:54:10.576Z,4.36
2017-11-14T12:55:11.249Z,4.47
2017-11-14T12:56:10.537Z,4.47
2017-11-14T12:57:10.811Z,4.44
2017-11-14T12:58:10.532Z,4.65
2017-11-14T12:59:10.510Z,4.68
2017-11-14T13:00:10.756Z,4.66
2017-11-14T13:01:10.764Z,4.69
2017-11-14T13:02:10.455Z,4.65
2017-11-14T13:03:10.993Z,4.79
2017-11-14T13:04:10.736Z,4.72
2017-11-14T13:05:10.405Z,4.74
2017-11-14T13:06:10.672Z,4.83
2017-11-14T13:07:10.655Z,4.78
2017-11-14T13:08:10.361Z,4.84
2017-11-14T13:09:10.920Z,4.92
2017-11-14T13:10:10.333Z,4.91
2017-11-14T13:11:10.317Z,4.97
2017-11-14T13:12:10.302Z,4.97
2017-11-14T13:13:10.564Z,5.09
2017-11-14T13:14:10.553Z,5.05
2017-11-14T13:15:10.820Z,5
2017-11-14T13:16:10.248Z,5.05